createdAt,value
2019-04-25T00:01:46.205Z,22.20
2019-04-25T00:04:33.427Z,22.20
2019-04-25T00:07:21.578Z,22.20
2019-04-25T00:10:09.424Z,22.20
2019-04-25T00:12:55.539Z,22.20
2019-04-25T00:15:44.921Z,22.20
2019-04-25T00:18:32.048Z,22.20
2019-04-25T00:21:43.459Z,22.20
2019-04-25T00:24:41.457Z,22.20
2019-04-25T00:27:28.787Z,22.20
2019-04-25T00:30:15.070Z,22.20
2019-04-25T00:33:02.038Z,22.20
2019-04-25T00:35:48.485Z,22.10
2019-04-25T00:38:34.807Z,22.10
2019-04-25T00:41:21.439Z,22.10
2019-04-25T00:44:07.691Z,22.10
2019-04-25T00:46:56.726Z,22.10
2019-04-25T00:49:43.821Z,22.10
2019-04-25T00:52:31.340Z,22.10
2019-04-25T00:55:26.886Z,22.10
2019-04-25T00:58:14.467Z,22.20
2019-04-25T01:01:21.808Z,22.20
2019-04-25T01:04:08.016Z,22.20
2019-04-25T01:06:55.416Z,22.20
2019-04-25T01:09:42.327Z,22.20
2019-04-25T01:12:31.434Z,22.20
2019-04-25T01:15:18.107Z,22.20
2019-04-25T01:18:04.203Z,22.20
2019-04-25T01:20:51.176Z,22.20
2019-04-25T01:23:37.443Z,22.20
2019-04-25T01:26:24.041Z,22.20
2019-04-25T01:29:10.943Z,22.20
2019-04-25T01:31:57.252Z,22.20
2019-04-25T01:34:50.870Z,22.20
2019-04-25T01:37:54.836Z,22.20
2019-04-25T01:41:03.994Z,22.20
2019-04-25T01:43:59.849Z,22.20
2019-04-25T01:46:46.213Z,22.20
2019-04-25T01:49:33.976Z,22.20
2019-04-25T01:52:19.952Z,22.20
2019-04-25T01:55:07.003Z,22.20
2019-04-25T01:57:54.596Z,22.20
2019-04-25T02:00:45.114Z,22.20
2019-04-25T02:03:31.499Z,22.20
2019-04-25T02:06:18.191Z,22.20
2019-04-25T02:09:09.090Z,22.20
2019-04-25T02:12:05.359Z,22.20
2019-04-25T02:14:52.713Z,22.20
2019-04-25T02:17:39.187Z,22.20
2019-04-25T02:20:25.724Z,22.20
2019-04-25T02:23:14.164Z,22.20
2019-04-25T02:26:13.092Z,22.20
2019-04-25T02:28:48.320Z,22.20
2019-04-25T02:31:35.147Z,22.20
2019-04-25T02:34:21.381Z,22.20
2019-04-25T02:37:09.306Z,22.20
2019-04-25T02:39:58.262Z,22.20
2019-04-25T02:42:44.491Z,22.20
2019-04-25T02:46:07.825Z,22.20
2019-04-25T02:49:34.754Z,22.20
2019-04-25T02:52:17.581Z,22.20
2019-04-25T02:55:02.186Z,22.20
2019-04-25T02:57:49.050Z,22.20
2019-04-25T03:00:51.849Z,22.20
2019-04-25T03:03:24.545Z,22.20
2019-04-25T03:06:12.232Z,22.10
2019-04-25T03:09:00.128Z,22.20
2019-04-25T03:11:47.638Z,22.20
2019-04-25T03:14:35.134Z,22.20
2019-04-25T03:17:24.419Z,22.10
2019-04-25T03:20:26.851Z,22.10
2019-04-25T03:23:34.882Z,22.10
2019-04-25T03:26:20.043Z,22.10
2019-04-25T03:29:07.278Z,22.10
2019-04-25T03:31:56.048Z,22.10
2019-04-25T03:34:43.443Z,22.10
2019-04-25T03:37:30.599Z,22.10
2019-04-25T03:40:16.995Z,22.10
2019-04-25T03:43:05.076Z,22.10
2019-04-25T03:45:51.323Z,22.20
2019-04-25T03:48:37.171Z,22.10
2019-04-25T03:51:24.029Z,22.10
2019-04-25T03:54:10.606Z,22.20
2019-04-25T03:56:57.075Z,22.20
2019-04-25T03:59:43.774Z,22.20
2019-04-25T04:02:30.231Z,22.20
2019-04-25T04:05:16.124Z,22.20
2019-04-25T04:08:04.285Z,22.20
2019-04-25T04:10:50.592Z,22.20
2019-04-25T04:13:37.011Z,22.20
2019-04-25T04:16:25.843Z,22.20
2019-04-25T04:19:12.788Z,22.20
2019-04-25T04:22:09.403Z,22.20
2019-04-25T04:24:57.207Z,22.30
2019-04-25T04:27:43.790Z,22.30
2019-04-25T04:30:30.186Z,22.30
2019-04-25T04:33:29.553Z,22.30
2019-04-25T04:36:04.507Z,22.30
2019-04-25T04:38:51.041Z,22.40
2019-04-25T04:41:37.451Z,22.40
2019-04-25T04:44:24.096Z,22.50
2019-04-25T04:47:10.531Z,22.60
2019-04-25T04:49:57.943Z,22.60
2019-04-25T04:52:44.272Z,22.70
2019-04-25T04:55:30.627Z,22.80
2019-04-25T04:58:17.671Z,22.80
2019-04-25T05:01:04.487Z,22.90
2019-04-25T05:04:08.196Z,23.00
2019-04-25T05:07:03.643Z,23.10
2019-04-25T05:09:49.727Z,23.30
2019-04-25T05:12:36.183Z,23.40
2019-04-25T05:15:24.520Z,23.50
2019-04-25T05:18:11.521Z,23.70
2019-04-25T05:20:59.375Z,23.80
2019-04-25T05:23:45.664Z,23.90
2019-04-25T05:26:32.204Z,24.00
2019-04-25T05:29:21.358Z,24.10
2019-04-25T05:32:07.481Z,24.20
2019-04-25T05:34:53.799Z,24.40
2019-04-25T05:37:40.569Z,24.50
2019-04-25T05:40:26.903Z,24.60
2019-04-25T05:43:14.179Z,24.70
2019-04-25T05:46:01.172Z,24.80
2019-04-25T05:48:47.572Z,25.00
2019-04-25T05:51:33.976Z,25.10
2019-04-25T05:54:20.605Z,25.20
2019-04-25T05:57:06.430Z,25.30
2019-04-25T05:59:53.723Z,25.40
2019-04-25T06:02:40.091Z,25.50
2019-04-25T06:05:27.311Z,25.60
2019-04-25T06:08:17.517Z,25.70
2019-04-25T06:11:14.151Z,25.80
2019-04-25T06:14:04.519Z,25.80
2019-04-25T06:16:53.597Z,25.90
2019-04-25T06:19:53.294Z,26.00
2019-04-25T06:22:57.547Z,26.10
2019-04-25T06:25:44.003Z,26.20
2019-04-25T06:28:34.532Z,26.30
2019-04-25T06:31:21.289Z,26.30
2019-04-25T06:34:08.196Z,26.40
2019-04-25T06:36:54.445Z,26.40
2019-04-25T06:39:41.072Z,26.60
2019-04-25T06:42:27.488Z,26.70
2019-04-25T06:45:34.423Z,26.70
2019-04-25T06:48:43.365Z,26.70
2019-04-25T06:51:49.291Z,26.60
2019-04-25T06:54:35.579Z,26.70
2019-04-25T06:57:22.145Z,26.60
2019-04-25T07:00:09.965Z,26.40
2019-04-25T07:02:56.117Z,26.30
2019-04-25T07:05:43.957Z,26.10
2019-04-25T07:08:31.140Z,26.00
2019-04-25T07:11:17.717Z,25.90
2019-04-25T07:14:04.527Z,25.70
2019-04-25T07:16:50.713Z,25.60
2019-04-25T07:19:37.095Z,25.40
2019-04-25T07:22:23.974Z,25.30
2019-04-25T07:25:13.171Z,25.20
2019-04-25T07:28:28.503Z,25.10
2019-04-25T07:31:41.618Z,24.90
2019-04-25T07:34:27.738Z,24.80
2019-04-25T07:37:13.908Z,24.70
2019-04-25T07:40:01.302Z,24.60
2019-04-25T07:42:49.810Z,24.60
2019-04-25T07:45:36.325Z,24.50
2019-04-25T07:48:24.655Z,24.40
2019-04-25T07:51:10.500Z,24.40
2019-04-25T07:53:56.915Z,24.40
2019-04-25T07:56:43.770Z,24.40
2019-04-25T07:59:30.991Z,24.40
2019-04-25T08:02:17.208Z,24.40
2019-04-25T08:05:09.987Z,24.50
2019-04-25T08:07:56.148Z,24.60
2019-04-25T08:11:08.748Z,24.60
2019-04-25T08:14:03.333Z,24.70
2019-04-25T08:16:53.807Z,24.90
2019-04-25T08:19:40.235Z,25.10
2019-04-25T08:22:26.679Z,25.30
2019-04-25T08:25:13.822Z,25.50
2019-04-25T08:28:00.184Z,25.60
2019-04-25T08:30:46.531Z,25.80
2019-04-25T08:33:34.532Z,25.90
2019-04-25T08:36:20.663Z,26.10
2019-04-25T08:39:09.340Z,26.30
2019-04-25T08:41:55.368Z,26.40
2019-04-25T08:44:41.574Z,26.50
2019-04-25T08:47:28.149Z,26.50
2019-04-25T08:50:36.772Z,26.50
2019-04-25T08:53:24.081Z,26.60
2019-04-25T08:56:17.431Z,26.70
2019-04-25T08:59:34.169Z,26.70
2019-04-25T09:02:36.443Z,26.70
2019-04-25T09:05:32.639Z,26.70
2019-04-25T09:08:19.512Z,26.70
2019-04-25T09:11:05.695Z,26.70
2019-04-25T09:13:53.598Z,26.60
2019-04-25T09:16:39.956Z,26.60
2019-04-25T09:19:26.402Z,26.60
2019-04-25T09:22:13.254Z,26.70
2019-04-25T09:25:00.078Z,26.70
2019-04-25T09:27:47.069Z,26.70
2019-04-25T09:30:35.000Z,26.70
2019-04-25T09:33:23.185Z,26.70
2019-04-25T09:36:10.019Z,26.70
2019-04-25T09:38:58.911Z,26.70
2019-04-25T09:41:45.156Z,26.70
2019-04-25T09:44:38.416Z,26.70
2019-04-25T09:47:25.608Z,26.70
2019-04-25T09:50:20.807Z,26.70
2019-04-25T09:53:07.195Z,26.70
2019-04-25T09:56:01.707Z,26.60
2019-04-25T09:59:10.672Z,26.60
2019-04-25T10:01:56.936Z,26.50
2019-04-25T10:04:45.473Z,26.50
2019-04-25T10:07:31.695Z,26.40
2019-04-25T10:10:17.645Z,26.40
2019-04-25T10:13:06.491Z,26.40
2019-04-25T10:16:05.198Z,26.40
2019-04-25T10:18:52.993Z,26.30
2019-04-25T10:21:39.924Z,26.30
2019-04-25T10:24:26.232Z,26.20
2019-04-25T10:27:13.958Z,26.20
2019-04-25T10:30:00.323Z,26.20
2019-04-25T10:32:48.022Z,26.10
2019-04-25T10:35:46.651Z,26.10
2019-04-25T10:38:25.587Z,26.10
2019-04-25T10:41:14.090Z,26.00
2019-04-25T10:44:00.432Z,26.00
2019-04-25T10:46:47.327Z,26.00
2019-04-25T10:49:34.569Z,25.90
2019-04-25T10:52:20.922Z,25.90
2019-04-25T10:55:07.242Z,25.80
2019-04-25T10:57:55.072Z,25.80
2019-04-25T11:00:46.250Z,25.80
2019-04-25T11:03:50.246Z,25.70
2019-04-25T11:06:36.891Z,25.70
2019-04-25T11:09:24.699Z,25.60
2019-04-25T11:12:12.601Z,25.60
2019-04-25T11:15:00.138Z,25.50
2019-04-25T11:17:46.755Z,25.50
2019-04-25T11:20:33.852Z,25.40
2019-04-25T11:23:20.711Z,25.40
2019-04-25T11:26:06.577Z,25.40
2019-04-25T11:28:53.156Z,25.30
2019-04-25T11:31:46.190Z,25.30
2019-04-25T11:34:33.421Z,25.30
2019-04-25T11:37:21.440Z,25.20
2019-04-25T11:40:17.418Z,25.20
2019-04-25T11:43:04.859Z,25.20
2019-04-25T11:45:55.540Z,25.20
2019-04-25T11:48:40.560Z,25.10
2019-04-25T11:51:26.843Z,25.10
2019-04-25T11:54:13.891Z,25.10
2019-04-25T11:57:00.496Z,25.10
2019-04-25T11:59:48.897Z,25.00
2019-04-25T12:02:34.620Z,25.00
2019-04-25T12:05:21.103Z,24.90
2019-04-25T12:08:08.139Z,24.90
2019-04-25T12:10:54.917Z,24.90
2019-04-25T12:13:41.539Z,24.90
2019-04-25T12:16:28.396Z,24.90
2019-04-25T12:19:15.553Z,24.80
2019-04-25T12:22:02.071Z,24.80
2019-04-25T12:24:48.587Z,24.80
2019-04-25T12:27:34.811Z,24.80
2019-04-25T12:30:28.902Z,24.70
2019-04-25T12:33:20.716Z,24.70
2019-04-25T12:35:56.932Z,24.70
2019-04-25T12:38:44.978Z,24.70
2019-04-25T12:41:31.139Z,24.70
2019-04-25T12:44:53.921Z,24.60
2019-04-25T12:47:42.867Z,24.60
2019-04-25T12:50:29.263Z,24.60
2019-04-25T12:53:15.943Z,24.60
2019-04-25T12:56:02.120Z,24.60
2019-04-25T12:58:48.088Z,24.60
2019-04-25T13:01:34.419Z,24.60
2019-04-25T13:04:20.811Z,24.60
2019-04-25T13:07:06.816Z,24.60
2019-04-25T13:09:53.733Z,24.50
2019-04-25T13:12:39.985Z,24.50
2019-04-25T13:15:29.624Z,24.50
2019-04-25T13:18:16.151Z,24.40
2019-04-25T13:21:03.478Z,24.40
2019-04-25T13:23:49.941Z,24.40
2019-04-25T13:26:43.562Z,24.40
2019-04-25T13:30:07.956Z,24.40
2019-04-25T13:33:28.988Z,24.40
2019-04-25T13:36:15.940Z,24.30
2019-04-25T13:39:04.371Z,24.40
2019-04-25T13:41:54.396Z,24.40
2019-04-25T13:44:41.161Z,24.30
2019-04-25T13:47:29.375Z,24.30
2019-04-25T13:50:15.664Z,24.30
2019-04-25T13:53:03.274Z,24.30
2019-04-25T13:55:49.599Z,24.30
2019-04-25T13:58:35.995Z,24.30
2019-04-25T14:01:24.177Z,24.30
2019-04-25T14:04:11.431Z,24.30
2019-04-25T14:06:58.005Z,24.30
2019-04-25T14:09:44.739Z,24.30
2019-04-25T14:12:33.965Z,24.40
2019-04-25T14:15:25.076Z,24.40
2019-04-25T14:18:29.503Z,24.40
2019-04-25T14:21:17.510Z,24.40
2019-04-25T14:24:03.464Z,24.40
2019-04-25T14:26:49.383Z,24.40
2019-04-25T14:29:35.928Z,24.40
2019-04-25T14:32:26.161Z,24.40
2019-04-25T14:35:10.775Z,24.40
2019-04-25T14:37:57.063Z,24.40
2019-04-25T14:40:43.113Z,24.40
2019-04-25T14:43:31.117Z,24.50
2019-04-25T14:46:17.423Z,24.50
2019-04-25T14:49:04.076Z,24.50
2019-04-25T14:51:51.011Z,24.50
2019-04-25T14:54:43.116Z,24.60
2019-04-25T14:57:30.607Z,24.60
2019-04-25T15:00:30.303Z,24.60
2019-04-25T15:03:16.659Z,24.60
2019-04-25T15:06:02.984Z,24.60
2019-04-25T15:08:49.426Z,24.60
2019-04-25T15:11:35.792Z,24.60
2019-04-25T15:14:22.565Z,24.60
2019-04-25T15:17:10.288Z,24.70
2019-04-25T15:19:56.531Z,24.70
2019-04-25T15:22:42.749Z,24.70
2019-04-25T15:25:30.063Z,24.70
2019-04-25T15:28:16.403Z,24.70
2019-04-25T15:31:02.867Z,24.70
2019-04-25T15:33:49.296Z,24.70
2019-04-25T15:36:50.580Z,24.70
2019-04-25T15:39:43.559Z,24.70
2019-04-25T15:42:51.295Z,24.70
2019-04-25T15:45:51.704Z,24.70
2019-04-25T15:48:38.687Z,24.70
2019-04-25T15:51:25.502Z,24.70
2019-04-25T15:54:12.103Z,24.70
2019-04-25T15:56:58.367Z,24.70
2019-04-25T15:59:45.291Z,24.70
2019-04-25T16:02:32.687Z,24.70
2019-04-25T16:05:19.137Z,24.70
2019-04-25T16:08:06.717Z,24.70
2019-04-25T16:10:52.904Z,24.70
2019-04-25T16:13:39.203Z,24.70
2019-04-25T16:16:26.884Z,24.70
2019-04-25T16:19:13.020Z,24.70
2019-04-25T16:21:59.763Z,24.70
2019-04-25T16:24:45.779Z,24.70
2019-04-25T16:27:32.364Z,24.70
2019-04-25T16:30:21.550Z,24.70
2019-04-25T16:33:08.759Z,24.70
2019-04-25T16:35:55.439Z,24.70
2019-04-25T16:38:41.535Z,24.70
2019-04-25T16:41:28.664Z,24.70
2019-04-25T16:44:18.885Z,24.60
2019-04-25T16:47:05.669Z,24.60
2019-04-25T16:49:52.034Z,24.60
2019-04-25T16:52:39.372Z,24.50
2019-04-25T16:55:25.555Z,24.50
2019-04-25T16:58:15.882Z,24.50
2019-04-25T17:01:08.783Z,24.40
2019-04-25T17:03:54.924Z,24.40
2019-04-25T17:06:41.453Z,24.40
2019-04-25T17:09:30.353Z,24.40
2019-04-25T17:12:17.975Z,24.30
2019-04-25T17:15:23.913Z,24.30
2019-04-25T17:18:20.098Z,24.30
2019-04-25T17:21:08.084Z,24.30
2019-04-25T17:23:54.127Z,24.30
2019-04-25T17:26:42.233Z,24.30
2019-04-25T17:29:30.349Z,24.20
2019-04-25T17:32:53.744Z,24.20
2019-04-25T17:35:59.117Z,24.20
2019-04-25T17:38:52.987Z,24.20
2019-04-25T17:41:39.071Z,24.20
2019-04-25T17:44:25.575Z,24.20
2019-04-25T17:47:11.805Z,24.20
2019-04-25T17:49:57.663Z,24.20
2019-04-25T17:52:44.204Z,24.20
2019-04-25T17:55:30.427Z,24.20
2019-04-25T17:58:16.368Z,24.10
2019-04-25T18:01:03.900Z,24.10
2019-04-25T18:03:50.329Z,24.10
2019-04-25T18:06:37.652Z,24.00
2019-04-25T18:09:24.381Z,24.00
2019-04-25T18:12:10.660Z,24.00
2019-04-25T18:14:58.720Z,23.90
2019-04-25T18:17:44.900Z,23.90
2019-04-25T18:20:33.119Z,23.80
2019-04-25T18:23:38.595Z,23.80
2019-04-25T18:26:30.449Z,23.80
2019-04-25T18:29:17.084Z,23.70
2019-04-25T18:32:03.184Z,23.70
2019-04-25T18:34:56.104Z,23.60
2019-04-25T18:38:01.900Z,23.60
2019-04-25T18:41:07.917Z,23.50
2019-04-25T18:43:56.363Z,23.50
2019-04-25T18:46:44.673Z,23.40
2019-04-25T18:49:30.958Z,23.40
2019-04-25T18:52:38.585Z,23.30
2019-04-25T18:55:38.903Z,23.30
2019-04-25T18:58:48.225Z,23.30
2019-04-25T19:01:51.671Z,23.20
2019-04-25T19:04:54.999Z,23.20
2019-04-25T19:07:41.004Z,23.10
2019-04-25T19:10:27.347Z,23.00
2019-04-25T19:13:13.472Z,23.00
2019-04-25T19:15:59.631Z,23.10
2019-04-25T19:18:47.155Z,23.10
2019-04-25T19:21:34.016Z,23.10
2019-04-25T19:24:20.435Z,23.10
2019-04-25T19:27:06.840Z,23.20
2019-04-25T19:29:53.543Z,23.20
2019-04-25T19:32:40.609Z,23.20
2019-04-25T19:35:27.767Z,23.20
2019-04-25T19:38:13.655Z,23.20
2019-04-25T19:41:14.744Z,23.20
2019-04-25T19:44:17.527Z,23.20
2019-04-25T19:47:03.735Z,23.20
2019-04-25T19:49:49.947Z,23.20
2019-04-25T19:52:36.379Z,23.20
2019-04-25T19:55:22.775Z,23.30
2019-04-25T19:58:09.223Z,23.30
2019-04-25T20:00:55.656Z,23.20
2019-04-25T20:03:58.530Z,23.30
2019-04-25T20:07:13.671Z,23.30
2019-04-25T20:10:19.247Z,23.30
2019-04-25T20:13:05.844Z,23.30
2019-04-25T20:15:52.321Z,23.30
2019-04-25T20:18:38.584Z,23.30
2019-04-25T20:21:25.588Z,23.30
2019-04-25T20:24:11.886Z,23.30
2019-04-25T20:26:58.423Z,23.30
2019-04-25T20:29:45.306Z,23.30
2019-04-25T20:32:32.871Z,23.20
2019-04-25T20:35:20.299Z,23.20
2019-04-25T20:38:07.071Z,23.20
2019-04-25T20:40:53.907Z,23.20
2019-04-25T20:43:41.004Z,23.20
2019-04-25T20:46:27.948Z,23.20
2019-04-25T20:49:14.463Z,23.20
2019-04-25T20:52:00.675Z,23.20
2019-04-25T20:54:48.908Z,23.20
2019-04-25T20:57:35.177Z,23.20
2019-04-25T21:00:40.014Z,23.20
2019-04-25T21:03:25.763Z,23.20
2019-04-25T21:06:17.747Z,23.20
2019-04-25T21:09:05.495Z,23.20
2019-04-25T21:11:53.410Z,23.20
2019-04-25T21:15:05.493Z,23.20
2019-04-25T21:18:09.147Z,23.20
2019-04-25T21:20:55.489Z,23.20
2019-04-25T21:23:42.119Z,23.20
2019-04-25T21:26:29.393Z,23.10
2019-04-25T21:29:15.743Z,23.10
2019-04-25T21:32:02.171Z,23.10
2019-04-25T21:34:49.464Z,23.10
2019-04-25T21:37:36.707Z,23.10
2019-04-25T21:40:31.213Z,23.10
2019-04-25T21:43:23.427Z,23.10
2019-04-25T21:46:10.335Z,23.10
2019-04-25T21:48:56.888Z,23.10
2019-04-25T21:51:43.449Z,23.10
2019-04-25T21:54:29.700Z,23.10
2019-04-25T21:57:17.074Z,23.10
2019-04-25T22:00:09.225Z,23.20
2019-04-25T22:02:56.763Z,23.20
2019-04-25T22:05:43.808Z,23.20
2019-04-25T22:08:30.343Z,23.20
2019-04-25T22:11:16.444Z,23.20
2019-04-25T22:14:03.733Z,23.10
2019-04-25T22:16:50.519Z,23.20
2019-04-25T22:19:37.531Z,23.10
2019-04-25T22:22:24.275Z,23.10
2019-04-25T22:25:10.730Z,23.10
2019-04-25T22:27:57.676Z,23.10
2019-04-25T22:30:46.788Z,23.10
2019-04-25T22:33:43.527Z,23.10
2019-04-25T22:36:30.084Z,23.10
2019-04-25T22:39:16.311Z,23.10
2019-04-25T22:42:04.196Z,23.10
2019-04-25T22:44:50.939Z,23.10
2019-04-25T22:47:38.151Z,23.10
2019-04-25T22:50:24.918Z,23.10
2019-04-25T22:53:21.524Z,23.10
2019-04-25T22:55:58.845Z,23.20
2019-04-25T22:58:45.193Z,23.10
2019-04-25T23:01:39.358Z,23.10
2019-04-25T23:04:48.495Z,23.20
2019-04-25T23:07:34.880Z,23.20
2019-04-25T23:10:21.576Z,23.20
2019-04-25T23:13:08.746Z,23.20
2019-04-25T23:15:55.467Z,23.20
2019-04-25T23:18:43.352Z,23.20
2019-04-25T23:21:29.695Z,23.20
2019-04-25T23:24:17.899Z,23.20
2019-04-25T23:27:12.432Z,23.20
2019-04-25T23:29:59.067Z,23.20
2019-04-25T23:32:45.507Z,23.20
2019-04-25T23:35:34.762Z,23.20
2019-04-25T23:38:19.783Z,23.20
2019-04-25T23:41:06.984Z,23.20
2019-04-25T23:43:53.444Z,23.20
2019-04-25T23:46:39.760Z,23.20
2019-04-25T23:49:26.093Z,23.20
2019-04-25T23:52:12.984Z,23.20
2019-04-25T23:54:59.587Z,23.20
2019-04-25T23:57:45.887Z,23.20
